Weather at Town & Country Airpark

Public forecast

Using degrees Fahrenheit for public forecast. Weather courtesy of forecast.io.

Closest aviation weather report (METAR) to Town & Country Airpark

Closest report is Lubbock Preston Smith International Airport, 10.7 nm (19.8 km) N. Retrieved 2021/10/28 13:53 UTC (47 minutes ago):

KLBB 281353Z 32014KT 10SM CLR 12/M06 A3012 RMK AO2 SLP178 T01171061

Closest aviation forecast (TAF) to Town & Country Airpark

Closest forecast is Lubbock Preston Smith International Airport, 10.7 nm (19.8 km) N. Retrieved 2021/10/28 12:24 UTC (2 hours ago):

TAF KLBB 281123Z 2812/2912 31011KT P6SM SKC WS010/35040KT FM281400 32015KT P6SM SKC FM281600 34024G34KT P6SM SKC FM282100 34022KT P6SM FEW070 FM290000 34015KT P6SM SKC FM290600 34009KT P6SM SKC WS010/00040KT